createdAt,value
2019-02-25T00:02:01.377Z,1.20
2019-02-25T00:04:07.430Z,1.20
2019-02-25T00:06:12.981Z,1.20
2019-02-25T00:08:24.822Z,1.20
2019-02-25T00:10:30.437Z,1.20
2019-02-25T00:12:39.202Z,1.20
2019-02-25T00:14:45.169Z,1.30
2019-02-25T00:16:50.949Z,1.30
2019-02-25T00:18:56.487Z,1.30
2019-02-25T00:21:08.548Z,1.30
2019-02-25T00:23:21.422Z,1.40
2019-02-25T00:25:26.942Z,1.40
2019-02-25T00:27:32.353Z,1.40
2019-02-25T00:29:39.449Z,1.50
2019-02-25T00:31:45.946Z,1.80
2019-02-25T00:33:51.469Z,1.80
2019-02-25T00:35:56.900Z,2.50
2019-02-25T00:38:02.405Z,4.10
2019-02-25T00:40:07.877Z,4.80
2019-02-25T00:42:13.341Z,3.90
2019-02-25T00:44:18.809Z,3.30
2019-02-25T00:46:24.281Z,3.10
2019-02-25T00:48:29.785Z,3.00
2019-02-25T00:50:35.214Z,2.60
2019-02-25T00:52:47.046Z,2.50
2019-02-25T00:55:06.458Z,2.40
2019-02-25T00:57:14.069Z,2.40
2019-02-25T00:59:19.548Z,2.00
2019-02-25T01:01:25.030Z,1.80
2019-02-25T01:03:30.574Z,1.50
2019-02-25T01:05:36.311Z,1.30
2019-02-25T01:07:41.802Z,1.20
2019-02-25T01:09:50.018Z,1.20
2019-02-25T01:12:01.583Z,1.00
2019-02-25T01:14:13.650Z,1.10
2019-02-25T01:16:19.059Z,1.00
2019-02-25T01:18:24.473Z,1.10
2019-02-25T01:20:29.951Z,1.10
2019-02-25T01:22:35.340Z,1.10
2019-02-25T01:24:40.802Z,1.10
2019-02-25T01:26:55.218Z,1.20
2019-02-25T01:29:04.247Z,1.30
2019-02-25T01:31:09.658Z,1.40
2019-02-25T01:33:15.165Z,1.50
2019-02-25T01:35:20.571Z,1.60
2019-02-25T01:37:26.003Z,1.70
2019-02-25T01:39:37.699Z,1.90
2019-02-25T01:41:43.219Z,2.40
2019-02-25T01:43:51.418Z,2.70
2019-02-25T01:45:56.829Z,3.30
2019-02-25T01:48:02.223Z,3.70
2019-02-25T01:50:08.257Z,4.30
2019-02-25T01:52:13.753Z,4.60
2019-02-25T01:54:19.209Z,3.90
2019-02-25T01:56:24.639Z,3.80
2019-02-25T01:58:30.077Z,3.60
2019-02-25T02:00:35.672Z,3.40
2019-02-25T02:02:41.274Z,3.10
2019-02-25T02:04:46.692Z,2.90
2019-02-25T02:06:52.150Z,2.70
2019-02-25T02:08:57.666Z,2.70
2019-02-25T02:11:03.213Z,3.00
2019-02-25T02:13:14.109Z,3.50
2019-02-25T02:15:15.994Z,3.80
2019-02-25T02:17:21.412Z,3.90
2019-02-25T02:19:26.893Z,3.80
2019-02-25T02:21:32.345Z,4.00
2019-02-25T02:23:37.778Z,4.30
2019-02-25T02:25:43.217Z,4.30
2019-02-25T02:27:48.702Z,4.30
2019-02-25T02:29:54.161Z,4.50
2019-02-25T02:31:59.579Z,4.60
2019-02-25T02:34:07.781Z,4.30
2019-02-25T02:36:13.202Z,4.20
2019-02-25T02:38:18.781Z,4.50
2019-02-25T02:40:24.229Z,5.00
2019-02-25T02:42:29.637Z,5.30
2019-02-25T02:44:35.038Z,5.60
2019-02-25T02:47:02.426Z,5.60
2019-02-25T02:49:07.841Z,5.70
2019-02-25T02:51:20.065Z,5.70
2019-02-25T02:53:26.073Z,5.90
2019-02-25T02:55:31.630Z,5.80
2019-02-25T02:57:37.043Z,5.60
2019-02-25T02:59:42.455Z,5.60
2019-02-25T03:01:49.363Z,5.50
2019-02-25T03:03:54.843Z,5.50
2019-02-25T03:06:00.242Z,5.60
2019-02-25T03:08:12.509Z,6.00
2019-02-25T03:10:19.338Z,5.80
2019-02-25T03:12:25.831Z,5.80
2019-02-25T03:14:31.326Z,6.00
2019-02-25T03:16:36.726Z,6.00
2019-02-25T03:18:42.210Z,6.20
2019-02-25T03:20:50.783Z,6.30
2019-02-25T03:22:58.144Z,6.30
2019-02-25T03:25:05.479Z,6.20
2019-02-25T03:27:10.928Z,6.20
2019-02-25T03:29:16.447Z,6.30
2019-02-25T03:31:21.950Z,6.30
2019-02-25T03:33:27.407Z,6.30
2019-02-25T03:35:32.810Z,6.50
2019-02-25T03:37:38.195Z,6.90
2019-02-25T03:39:43.633Z,6.90
2019-02-25T03:41:49.059Z,6.80
2019-02-25T03:43:54.709Z,6.70
2019-02-25T03:46:00.203Z,6.80
2019-02-25T03:48:05.633Z,6.80
2019-02-25T03:50:11.087Z,7.00
2019-02-25T03:52:16.590Z,7.00
2019-02-25T03:54:22.018Z,6.90
2019-02-25T03:56:27.518Z,6.90
2019-02-25T03:58:32.984Z,6.90
2019-02-25T04:00:38.413Z,6.90
2019-02-25T04:02:43.825Z,7.00
2019-02-25T04:04:49.601Z,7.00
2019-02-25T04:06:55.050Z,6.90
2019-02-25T04:09:06.938Z,6.80
2019-02-25T04:11:13.374Z,6.50
2019-02-25T04:13:22.031Z,6.50
2019-02-25T04:15:31.966Z,6.70
2019-02-25T04:17:37.397Z,6.30
2019-02-25T04:19:42.932Z,6.00
2019-02-25T04:21:51.173Z,6.30
2019-02-25T04:23:56.591Z,6.20
2019-02-25T04:26:02.055Z,6.20
2019-02-25T04:28:08.562Z,6.20
2019-02-25T04:30:14.954Z,6.20
2019-02-25T04:32:21.760Z,6.60
2019-02-25T04:34:27.404Z,6.50
2019-02-25T04:36:33.482Z,6.60
2019-02-25T04:38:38.931Z,6.70
2019-02-25T04:40:44.390Z,6.90
2019-02-25T04:42:52.254Z,7.10
2019-02-25T04:44:57.788Z,6.80
2019-02-25T04:47:03.340Z,6.50
2019-02-25T04:49:08.774Z,6.30
2019-02-25T04:51:14.242Z,6.50
2019-02-25T04:53:19.678Z,6.70
2019-02-25T04:55:25.165Z,6.60
2019-02-25T04:57:30.604Z,6.80
2019-02-25T04:59:36.157Z,7.00
2019-02-25T05:01:41.657Z,7.10
2019-02-25T05:03:49.845Z,7.00
2019-02-25T05:05:55.301Z,7.10
2019-02-25T05:08:00.846Z,6.80
2019-02-25T05:10:06.714Z,6.70
2019-02-25T05:12:12.136Z,6.80
2019-02-25T05:14:17.654Z,6.60
2019-02-25T05:16:23.135Z,6.40
2019-02-25T05:18:28.746Z,6.30
2019-02-25T05:20:35.669Z,6.80
2019-02-25T05:22:41.173Z,6.70
2019-02-25T05:24:46.651Z,6.50
2019-02-25T05:26:55.172Z,6.40
2019-02-25T05:29:00.673Z,6.00
2019-02-25T05:31:06.212Z,5.60
2019-02-25T05:33:15.244Z,5.10
2019-02-25T05:35:23.527Z,4.90
2019-02-25T05:37:35.987Z,4.80
2019-02-25T05:39:43.189Z,4.70
2019-02-25T05:41:48.660Z,4.80
2019-02-25T05:43:55.683Z,4.70
2019-02-25T05:46:01.122Z,4.70
2019-02-25T05:48:06.635Z,4.60
2019-02-25T05:50:13.477Z,5.00
2019-02-25T05:52:21.874Z,5.10
2019-02-25T05:54:36.938Z,5.50
2019-02-25T05:56:55.138Z,5.30
2019-02-25T05:59:01.142Z,5.10
2019-02-25T06:01:06.878Z,5.10
2019-02-25T06:03:12.306Z,5.10
2019-02-25T06:05:17.804Z,4.90
2019-02-25T06:07:23.206Z,5.00
2019-02-25T06:09:28.710Z,6.40
2019-02-25T06:11:34.268Z,6.40
2019-02-25T06:13:40.043Z,7.10
2019-02-25T06:15:45.496Z,7.30
2019-02-25T06:17:50.942Z,7.20
2019-02-25T06:19:56.370Z,6.90
2019-02-25T06:22:03.400Z,6.80
2019-02-25T06:24:22.370Z,6.50
2019-02-25T06:26:30.503Z,6.00
2019-02-25T06:28:36.025Z,5.10
2019-02-25T06:30:41.754Z,4.50
2019-02-25T06:32:56.463Z,3.90
2019-02-25T06:35:06.206Z,3.60
2019-02-25T06:37:11.625Z,3.40
2019-02-25T06:39:17.053Z,3.30
2019-02-25T06:41:22.511Z,3.20
2019-02-25T06:43:28.627Z,3.20
2019-02-25T06:45:34.541Z,3.20
2019-02-25T06:47:39.984Z,3.40
2019-02-25T06:49:45.467Z,3.70
2019-02-25T06:51:50.945Z,4.00
2019-02-25T06:53:56.378Z,4.10
2019-02-25T06:56:15.577Z,4.20
2019-02-25T06:58:23.013Z,4.40
2019-02-25T07:00:28.849Z,4.50
2019-02-25T07:02:34.388Z,4.70
2019-02-25T07:04:46.465Z,4.70
2019-02-25T07:07:10.178Z,4.80
2019-02-25T07:09:33.164Z,4.70
2019-02-25T07:11:55.212Z,4.70
2019-02-25T07:14:18.466Z,4.50
2019-02-25T07:16:42.759Z,4.60
2019-02-25T07:19:11.523Z,4.70
2019-02-25T07:21:31.060Z,4.80
2019-02-25T07:23:43.641Z,4.80
2019-02-25T07:26:15.510Z,4.80
2019-02-25T07:28:28.438Z,4.80
2019-02-25T07:30:50.878Z,4.80
2019-02-25T07:33:12.143Z,4.80
2019-02-25T07:35:35.091Z,4.90
2019-02-25T07:37:56.620Z,5.10
2019-02-25T07:40:11.709Z,5.30
2019-02-25T07:42:24.847Z,5.50
2019-02-25T07:44:45.089Z,5.70
2019-02-25T07:47:16.409Z,5.70
2019-02-25T07:49:28.738Z,5.80
2019-02-25T07:51:48.251Z,5.90
2019-02-25T07:54:19.909Z,6.10
2019-02-25T07:56:44.653Z,6.40
2019-02-25T07:59:12.811Z,7.40
2019-02-25T08:01:36.114Z,8.00
2019-02-25T08:04:04.649Z,7.50
2019-02-25T08:06:31.994Z,7.40
2019-02-25T08:09:12.301Z,7.30
2019-02-25T08:11:40.470Z,7.30
2019-02-25T08:13:56.396Z,7.60
2019-02-25T08:16:14.091Z,7.80
2019-02-25T08:18:30.150Z,8.20
2019-02-25T08:21:04.090Z,8.60
2019-02-25T08:23:28.627Z,9.00
2019-02-25T08:26:00.012Z,9.60
2019-02-25T08:28:24.913Z,9.60
2019-02-25T08:30:39.822Z,10.10
2019-02-25T08:33:01.326Z,11.10
2019-02-25T08:35:18.641Z,11.20
2019-02-25T08:38:13.610Z,13.10
2019-02-25T08:41:00.964Z,13.00
2019-02-25T08:43:43.342Z,13.60
2019-02-25T08:45:57.067Z,12.70
2019-02-25T08:48:36.570Z,12.40
2019-02-25T08:50:48.572Z,11.60
2019-02-25T08:52:54.711Z,11.30
2019-02-25T08:55:00.329Z,12.30
2019-02-25T08:57:06.393Z,12.30
2019-02-25T08:59:12.662Z,13.00
2019-02-25T09:01:18.393Z,13.80
2019-02-25T09:03:23.932Z,15.20
2019-02-25T09:05:31.154Z,16.70
2019-02-25T09:07:42.672Z,16.80
2019-02-25T09:09:48.196Z,16.30
2019-02-25T09:11:53.390Z,16.10
2019-02-25T09:13:59.308Z,15.80
2019-02-25T09:16:05.030Z,16.20
2019-02-25T09:18:08.572Z,17.10
2019-02-25T09:20:14.745Z,19.30
2019-02-25T09:22:20.618Z,20.40
2019-02-25T09:24:25.888Z,20.80
2019-02-25T09:26:39.693Z,21.00
2019-02-25T09:29:22.643Z,19.90
2019-02-25T09:31:27.813Z,17.90
2019-02-25T09:33:35.771Z,17.30
2019-02-25T09:35:41.166Z,16.00
2019-02-25T09:37:47.494Z,15.70
2019-02-25T09:39:52.766Z,15.80
2019-02-25T09:42:08.158Z,15.20
2019-02-25T09:44:14.469Z,15.50
2019-02-25T09:46:19.848Z,15.50
2019-02-25T09:48:31.927Z,14.50
2019-02-25T09:50:37.769Z,14.30
2019-02-25T09:52:43.128Z,14.40
2019-02-25T09:54:58.502Z,15.60
2019-02-25T09:57:06.984Z,15.60
2019-02-25T09:59:12.299Z,16.20
2019-02-25T10:01:17.830Z,16.20
2019-02-25T10:03:23.404Z,18.10
2019-02-25T10:05:28.651Z,16.90
2019-02-25T10:07:34.131Z,16.20
2019-02-25T10:09:43.389Z,15.10
2019-02-25T10:11:48.841Z,14.80
2019-02-25T10:13:54.047Z,13.60
2019-02-25T10:15:59.286Z,13.80
2019-02-25T10:18:12.545Z,13.90
2019-02-25T10:20:18.205Z,14.30
2019-02-25T10:22:30.454Z,15.60
2019-02-25T10:24:43.233Z,17.90
2019-02-25T10:26:48.917Z,18.20
2019-02-25T10:29:02.546Z,20.80
2019-02-25T10:31:08.392Z,22.90
2019-02-25T10:33:14.099Z,23.10
2019-02-25T10:35:27.229Z,24.40
2019-02-25T10:37:46.230Z,23.80
2019-02-25T10:39:51.786Z,20.80
2019-02-25T10:41:59.508Z,19.70
2019-02-25T10:44:06.522Z,19.40
2019-02-25T10:46:15.114Z,20.30
2019-02-25T10:48:19.969Z,18.70
2019-02-25T10:50:26.180Z,18.70
2019-02-25T10:52:31.942Z,17.60
2019-02-25T10:54:41.604Z,17.20
2019-02-25T10:56:52.119Z,16.40
2019-02-25T10:59:00.177Z,16.30
2019-02-25T11:01:07.140Z,16.10
2019-02-25T11:03:13.483Z,16.60
2019-02-25T11:05:33.121Z,16.10
2019-02-25T11:07:39.817Z,15.20
2019-02-25T11:10:22.286Z,15.50
2019-02-25T11:12:29.869Z,15.30
2019-02-25T11:14:38.989Z,14.90
2019-02-25T11:16:48.053Z,15.00
2019-02-25T11:18:55.126Z,15.50
2019-02-25T11:21:03.657Z,15.50
2019-02-25T11:23:10.190Z,15.70
2019-02-25T11:25:16.293Z,15.90
2019-02-25T11:27:21.814Z,15.20
2019-02-25T11:29:27.093Z,16.00
2019-02-25T11:31:33.579Z,15.60
2019-02-25T11:33:38.753Z,15.60
2019-02-25T11:35:46.202Z,14.90
2019-02-25T11:37:54.716Z,14.80
2019-02-25T11:40:01.883Z,14.80
2019-02-25T11:42:08.013Z,14.20
2019-02-25T11:44:17.156Z,15.20
2019-02-25T11:46:30.002Z,16.60
2019-02-25T11:48:38.841Z,16.40
2019-02-25T11:50:51.153Z,17.50
2019-02-25T11:52:57.839Z,17.80
2019-02-25T11:55:05.289Z,19.60
2019-02-25T11:57:10.543Z,21.70
2019-02-25T11:59:15.681Z,22.10
2019-02-25T12:01:20.934Z,23.30
2019-02-25T12:03:26.190Z,22.60
2019-02-25T12:05:32.128Z,22.80
2019-02-25T12:07:37.591Z,23.10
2019-02-25T12:09:43.122Z,24.70
2019-02-25T12:11:48.320Z,24.20
2019-02-25T12:13:53.527Z,23.80
2019-02-25T12:15:58.762Z,23.80
2019-02-25T12:18:06.598Z,23.60
2019-02-25T12:20:12.586Z,24.10
2019-02-25T12:22:17.797Z,23.50
2019-02-25T12:24:29.273Z,23.40
2019-02-25T12:26:34.697Z,22.70
2019-02-25T12:28:41.598Z,22.40
2019-02-25T12:30:46.767Z,22.80
2019-02-25T12:32:51.946Z,22.60
2019-02-25T12:34:57.183Z,21.70
2019-02-25T12:37:02.438Z,23.10
2019-02-25T12:39:08.577Z,24.10
2019-02-25T12:41:13.722Z,22.90
2019-02-25T12:43:18.913Z,23.10
2019-02-25T12:45:24.072Z,23.70
2019-02-25T12:47:29.267Z,22.80
2019-02-25T12:49:41.303Z,23.00
2019-02-25T12:51:46.509Z,23.90
2019-02-25T12:53:51.746Z,22.60
2019-02-25T12:55:56.955Z,23.30
2019-02-25T12:58:02.184Z,24.20
2019-02-25T13:00:10.584Z,23.30
2019-02-25T13:02:15.863Z,23.50
2019-02-25T13:04:21.161Z,24.20
2019-02-25T13:06:26.479Z,23.90
2019-02-25T13:08:31.687Z,24.60
2019-02-25T13:10:36.905Z,23.90
2019-02-25T13:12:43.403Z,24.20
2019-02-25T13:14:48.727Z,22.90
2019-02-25T13:16:54.271Z,22.00
2019-02-25T13:18:59.487Z,21.60
2019-02-25T13:21:05.568Z,20.80
2019-02-25T13:23:13.211Z,18.90
2019-02-25T13:25:20.006Z,18.40
2019-02-25T13:27:25.226Z,19.50
2019-02-25T13:29:30.426Z,20.60
2019-02-25T13:31:35.774Z,20.20
2019-02-25T13:33:41.570Z,19.90
2019-02-25T13:35:46.842Z,20.70
2019-02-25T13:37:53.828Z,20.40
2019-02-25T13:40:04.433Z,20.60
2019-02-25T13:42:09.641Z,20.70
2019-02-25T13:44:16.722Z,20.90
2019-02-25T13:46:21.987Z,20.20
2019-02-25T13:48:30.616Z,20.70
2019-02-25T13:50:36.442Z,21.30
2019-02-25T13:52:48.031Z,19.80
2019-02-25T13:54:48.794Z,20.10
2019-02-25T13:56:54.371Z,19.90
2019-02-25T13:58:59.630Z,20.80
2019-02-25T14:01:05.540Z,20.10
2019-02-25T14:03:10.817Z,19.70
2019-02-25T14:05:16.189Z,19.50
2019-02-25T14:07:28.392Z,19.60
2019-02-25T14:09:33.911Z,18.50
2019-02-25T14:11:39.139Z,17.90
2019-02-25T14:13:45.166Z,16.60
2019-02-25T14:15:50.974Z,16.10
2019-02-25T14:17:59.288Z,16.50
2019-02-25T14:20:05.970Z,16.50
2019-02-25T14:22:11.286Z,17.10
2019-02-25T14:24:20.612Z,17.00
2019-02-25T14:27:42.911Z,16.50
2019-02-25T14:39:35.370Z,16.30
2019-02-25T14:41:40.287Z,16.30
2019-02-25T14:43:49.053Z,15.20
2019-02-25T14:45:55.729Z,14.90
2019-02-25T14:48:08.289Z,16.50
2019-02-25T14:50:15.914Z,14.70
2019-02-25T14:52:24.278Z,14.00
2019-02-25T14:54:30.028Z,13.80
2019-02-25T14:56:36.302Z,13.90
2019-02-25T14:58:47.672Z,14.30
2019-02-25T15:00:52.965Z,13.70
2019-02-25T15:02:58.474Z,15.20
2019-02-25T15:05:06.382Z,14.00
2019-02-25T15:07:13.487Z,14.20
2019-02-25T15:09:19.061Z,13.80
2019-02-25T15:11:24.573Z,15.20
2019-02-25T15:13:34.900Z,15.00
2019-02-25T15:15:41.718Z,14.50
2019-02-25T15:17:48.131Z,15.50
2019-02-25T15:19:54.385Z,16.10
2019-02-25T15:22:00.895Z,15.50
2019-02-25T15:24:08.160Z,13.80
2019-02-25T15:26:17.378Z,13.00
2019-02-25T15:28:23.151Z,12.20
2019-02-25T15:30:30.712Z,11.60
2019-02-25T15:32:39.507Z,11.30
2019-02-25T15:34:48.155Z,11.20
2019-02-25T15:36:53.590Z,11.00
2019-02-25T15:38:59.121Z,10.80
2019-02-25T15:41:06.702Z,10.50
2019-02-25T15:43:15.052Z,10.20
2019-02-25T15:45:20.145Z,10.10
2019-02-25T15:47:25.666Z,10.00
2019-02-25T15:49:38.169Z,9.90
2019-02-25T15:51:45.271Z,9.70
2019-02-25T15:53:51.892Z,9.70
2019-02-25T15:56:01.500Z,9.60
2019-02-25T15:58:08.695Z,9.40
2019-02-25T16:00:16.266Z,9.40
2019-02-25T16:02:22.243Z,9.20
2019-02-25T16:04:31.626Z,9.00
2019-02-25T16:06:37.291Z,8.90
2019-02-25T16:08:42.872Z,8.60
2019-02-25T16:10:49.450Z,8.20
2019-02-25T16:13:05.996Z,8.00
2019-02-25T16:15:26.787Z,7.90
2019-02-25T16:17:32.675Z,7.90
2019-02-25T16:19:48.358Z,7.50
2019-02-25T16:21:54.699Z,7.40
2019-02-25T16:24:02.047Z,7.20
2019-02-25T16:26:17.800Z,6.90
2019-02-25T16:28:23.011Z,6.70
2019-02-25T16:30:30.619Z,6.60
2019-02-25T16:32:44.568Z,6.60
2019-02-25T16:34:52.010Z,6.40
2019-02-25T16:37:04.864Z,6.30
2019-02-25T16:39:10.615Z,6.20
2019-02-25T16:41:16.693Z,6.00
2019-02-25T16:43:28.557Z,6.00
2019-02-25T16:45:35.468Z,5.80
2019-02-25T16:47:41.359Z,5.70
2019-02-25T16:49:50.375Z,5.60
2019-02-25T16:51:57.703Z,5.60
2019-02-25T16:54:04.395Z,5.50
2019-02-25T16:56:17.602Z,5.20
2019-02-25T16:58:36.727Z,5.10
2019-02-25T17:00:42.775Z,4.80
2019-02-25T17:02:49.437Z,4.80
2019-02-25T17:05:01.662Z,4.80
2019-02-25T17:07:07.901Z,4.70
2019-02-25T17:09:26.070Z,4.70
2019-02-25T17:11:37.997Z,4.70
2019-02-25T17:13:44.412Z,4.60
2019-02-25T17:15:52.723Z,4.70
2019-02-25T17:18:00.358Z,4.60
2019-02-25T17:20:10.188Z,4.40
2019-02-25T17:22:14.143Z,4.30
2019-02-25T17:24:23.717Z,4.20
2019-02-25T17:26:28.204Z,4.30
2019-02-25T17:28:33.711Z,4.20
2019-02-25T17:30:41.160Z,4.10
2019-02-25T17:32:49.214Z,4.00
2019-02-25T17:34:58.210Z,3.90
2019-02-25T17:37:06.343Z,3.80
2019-02-25T17:39:14.592Z,3.60
2019-02-25T17:41:20.075Z,3.60
2019-02-25T17:43:25.614Z,3.50
2019-02-25T17:45:32.449Z,3.50
2019-02-25T17:47:39.688Z,3.40
2019-02-25T17:49:51.686Z,3.40
2019-02-25T17:52:02.682Z,3.30
2019-02-25T17:54:10.129Z,3.20
2019-02-25T17:56:15.563Z,3.10
2019-02-25T17:58:27.202Z,3.10
2019-02-25T18:00:43.890Z,3.00
2019-02-25T18:02:54.589Z,2.90
2019-02-25T18:05:04.221Z,2.90
2019-02-25T18:07:09.853Z,2.80
2019-02-25T18:09:16.040Z,3.00
2019-02-25T18:11:24.483Z,3.10
2019-02-25T18:13:30.627Z,3.00
2019-02-25T18:15:38.625Z,3.00
2019-02-25T18:17:47.100Z,2.90
2019-02-25T18:19:54.541Z,2.90
2019-02-25T18:22:03.996Z,2.80
2019-02-25T18:24:10.072Z,2.40
2019-02-25T18:26:16.633Z,2.40
2019-02-25T18:28:22.603Z,2.30
2019-02-25T18:30:30.198Z,2.20
2019-02-25T18:32:37.093Z,2.20
2019-02-25T18:34:43.312Z,2.00
2019-02-25T18:36:49.368Z,2.00
2019-02-25T18:38:55.987Z,1.90
2019-02-25T18:41:09.147Z,1.90
2019-02-25T18:43:28.205Z,2.00
2019-02-25T18:45:35.410Z,2.10
2019-02-25T18:47:40.822Z,2.10
2019-02-25T18:49:46.499Z,2.20
2019-02-25T18:51:52.154Z,2.10
2019-02-25T18:53:59.722Z,2.10
2019-02-25T18:56:05.514Z,2.00
2019-02-25T18:58:24.104Z,2.00
2019-02-25T19:00:33.806Z,2.10
2019-02-25T19:02:40.261Z,1.90
2019-02-25T19:04:46.678Z,1.80
2019-02-25T19:06:53.696Z,1.70
2019-02-25T19:09:06.030Z,1.60
2019-02-25T19:11:13.213Z,1.60
2019-02-25T19:13:20.968Z,1.50
2019-02-25T19:15:34.963Z,1.50
2019-02-25T19:17:50.130Z,1.60
2019-02-25T19:20:02.659Z,1.70
2019-02-25T19:22:10.354Z,1.60
2019-02-25T19:24:16.608Z,1.60
2019-02-25T19:26:23.073Z,1.50
2019-02-25T19:28:30.241Z,1.50
2019-02-25T19:30:36.022Z,1.30
2019-02-25T19:32:41.522Z,1.30
2019-02-25T19:34:47.121Z,1.10
2019-02-25T19:36:53.233Z,1.10
2019-02-25T19:39:04.955Z,1.00
2019-02-25T19:41:11.035Z,1.00
2019-02-25T19:43:20.893Z,0.90
2019-02-25T19:45:31.254Z,0.80
2019-02-25T19:47:37.775Z,0.70
2019-02-25T19:49:45.713Z,0.50
2019-02-25T19:51:53.617Z,0.40
2019-02-25T19:54:05.183Z,0.40
2019-02-25T19:56:10.234Z,0.50
2019-02-25T19:58:17.298Z,0.40
2019-02-25T20:00:25.740Z,0.50
2019-02-25T20:02:32.889Z,0.40
2019-02-25T20:04:40.049Z,0.50
2019-02-25T20:06:47.136Z,0.50
2019-02-25T20:08:55.891Z,0.50
2019-02-25T20:11:00.730Z,0.60
2019-02-25T20:13:08.639Z,0.60
2019-02-25T20:15:16.391Z,0.60
2019-02-25T20:17:26.019Z,0.60
2019-02-25T20:19:30.121Z,0.50
2019-02-25T20:21:35.780Z,0.40
2019-02-25T20:23:41.265Z,0.30
2019-02-25T20:25:48.842Z,0.30
2019-02-25T20:27:55.124Z,0.30
2019-02-25T20:30:03.171Z,0.30
2019-02-25T20:32:18.538Z,0.30
2019-02-25T20:34:27.626Z,0.40
2019-02-25T20:36:34.745Z,0.40
2019-02-25T20:38:40.209Z,0.50
2019-02-25T20:40:49.017Z,0.50
2019-02-25T20:42:54.155Z,0.50
2019-02-25T20:45:11.472Z,0.50
2019-02-25T20:47:17.090Z,0.50
2019-02-25T20:49:23.277Z,0.70
2019-02-25T20:51:31.508Z,0.60
2019-02-25T20:53:37.792Z,0.50
2019-02-25T20:55:43.550Z,0.40
2019-02-25T20:57:54.316Z,0.40
2019-02-25T21:00:00.239Z,0.40
2019-02-25T21:02:09.702Z,0.30
2019-02-25T21:04:13.604Z,0.20
2019-02-25T21:06:21.248Z,0.40
2019-02-25T21:08:26.917Z,0.50
2019-02-25T21:10:35.664Z,0.50
2019-02-25T21:12:43.126Z,0.50
2019-02-25T21:14:48.501Z,0.70
2019-02-25T21:16:55.899Z,0.60
2019-02-25T21:19:01.296Z,0.50
2019-02-25T21:21:07.725Z,0.60
2019-02-25T21:23:13.960Z,0.70
2019-02-25T21:25:22.052Z,0.80
2019-02-25T21:27:30.232Z,0.70
2019-02-25T21:29:36.502Z,0.70
2019-02-25T21:31:43.123Z,0.60
2019-02-25T21:33:50.085Z,0.70
2019-02-25T21:35:55.849Z,0.70
2019-02-25T21:38:02.558Z,0.70
2019-02-25T21:40:10.421Z,0.70
2019-02-25T21:42:17.684Z,0.90
2019-02-25T21:44:24.190Z,1.00
2019-02-25T21:46:31.689Z,1.10
2019-02-25T21:48:55.031Z,1.20
2019-02-25T21:51:04.574Z,1.30
2019-02-25T21:53:09.474Z,1.30
2019-02-25T21:55:16.409Z,1.40
2019-02-25T21:57:46.625Z,1.30
2019-02-25T21:59:54.173Z,1.30
2019-02-25T22:02:01.579Z,1.30
2019-02-25T22:04:11.216Z,1.40
2019-02-25T22:06:19.986Z,1.40
2019-02-25T22:08:24.438Z,1.40
2019-02-25T22:10:34.093Z,1.30
2019-02-25T22:12:42.137Z,1.30
2019-02-25T22:14:49.747Z,1.40
2019-02-25T22:16:56.620Z,1.60
2019-02-25T22:19:02.821Z,1.50
2019-02-25T22:21:09.454Z,1.60
2019-02-25T22:23:16.578Z,1.60
2019-02-25T22:25:22.046Z,1.70
2019-02-25T22:27:27.537Z,1.70
2019-02-25T22:29:36.066Z,1.70
2019-02-25T22:31:45.267Z,1.80
2019-02-25T22:33:51.354Z,1.90
2019-02-25T22:35:56.937Z,1.90
2019-02-25T22:38:04.458Z,2.00
2019-02-25T22:40:15.077Z,2.00
2019-02-25T22:42:20.154Z,2.00
2019-02-25T22:44:26.956Z,1.90
2019-02-25T22:46:36.919Z,1.80
2019-02-25T22:48:43.298Z,1.80
2019-02-25T22:50:57.666Z,1.70
2019-02-25T22:53:04.240Z,1.70
2019-02-25T22:55:12.899Z,1.80
2019-02-25T22:57:20.945Z,1.80
2019-02-25T22:59:35.023Z,2.00
2019-02-25T23:01:42.582Z,2.00
2019-02-25T23:03:52.171Z,1.90
2019-02-25T23:06:03.070Z,2.00
2019-02-25T23:08:12.805Z,2.10
2019-02-25T23:10:23.697Z,2.10
2019-02-25T23:12:31.171Z,2.30
2019-02-25T23:14:38.269Z,2.30
2019-02-25T23:16:47.935Z,2.30
2019-02-25T23:18:54.480Z,2.30
2019-02-25T23:21:02.714Z,2.30
2019-02-25T23:23:15.980Z,2.50
2019-02-25T23:25:22.594Z,2.50
2019-02-25T23:27:36.503Z,2.50
2019-02-25T23:29:47.756Z,2.50
2019-02-25T23:31:52.804Z,2.70
2019-02-25T23:33:58.327Z,2.80
2019-02-25T23:36:04.189Z,2.80
2019-02-25T23:38:09.799Z,2.80
2019-02-25T23:40:16.786Z,2.90
2019-02-25T23:42:22.656Z,2.80
2019-02-25T23:44:28.715Z,2.80
2019-02-25T23:46:37.212Z,2.80
2019-02-25T23:48:44.084Z,2.90
2019-02-25T23:50:53.154Z,3.00
2019-02-25T23:52:59.766Z,3.00
2019-02-25T23:55:06.694Z,2.90
2019-02-25T23:57:14.706Z,3.00
2019-02-25T23:59:23.851Z,3.00
